Time;durP1;ratioP1;P1;durP2;ratioP2;P2;SDS_P1;SDS_P2;PMS_P1;PMS_P2;Temp;Humidity;BMP_temperature;BMP_pressure;BME280_temperature;BME280_humidity;BME280_pressure;Samples;Min_cycle;Max_cycle;Signal;HPM_P1;HPM_P2
2022/10/04 00:01:11;;;;;;;11.30;8.83;;;10.50;99.90;;;;;;5075848;28;20508;-68
2022/10/04 00:03:42;;;;;;;14.27;10.80;;;10.50;99.90;;;;;;5081301;28;20388;-69
2022/10/04 00:06:15;;;;;;;11.77;10.50;;;10.50;99.90;;;;;;5087813;28;20388;-71
2022/10/04 00:08:45;;;;;;;13.40;9.27;;;10.50;99.90;;;;;;5090354;28;20928;-70
2022/10/04 00:11:19;;;;;;;12.10;9.67;;;10.50;99.90;;;;;;5088456;28;20397;-69
2022/10/04 00:13:55;;;;;;;13.00;9.70;;;10.40;99.90;;;;;;5089721;28;20427;-70
2022/10/04 00:16:33;;;;;;;11.43;9.67;;;10.40;99.90;;;;;;5089097;28;20410;-69
2022/10/04 00:19:20;;;;;;;12.93;9.83;;;10.40;99.90;;;;;;5086264;28;20424;-69
2022/10/04 00:21:55;;;;;;;19.70;11.33;;;10.40;99.90;;;;;;5065446;28;20440;-69
2022/10/04 00:25:02;;;;;;;9.60;8.50;;;10.30;99.90;;;;;;5075128;28;20404;-69
2022/10/04 00:27:28;;;;;;;12.00;9.80;;;10.30;99.90;;;;;;5078330;28;20469;-70
2022/10/04 00:30:02;;;;;;;11.43;9.57;;;10.30;99.90;;;;;;5078199;28;20735;-69
2022/10/04 00:32:58;;;;;;;10.03;9.10;;;10.30;99.90;;;;;;5074697;28;20550;-70
2022/10/04 00:35:26;;;;;;;12.07;9.57;;;10.30;99.90;;;;;;5074369;28;20471;-69
2022/10/04 00:38:07;;;;;;;14.13;10.40;;;10.30;99.90;;;;;;5074015;28;20435;-69
2022/10/04 00:40:45;;;;;;;10.77;9.13;;;10.20;99.90;;;;;;5073961;28;20384;-69
2022/10/04 00:43:32;;;;;;;11.00;9.90;;;10.20;99.90;;;;;;5073612;28;20398;-69
2022/10/04 00:46:03;;;;;;;12.53;9.40;;;10.20;99.90;;;;;;5073269;28;20483;-69
2022/10/04 00:48:48;;;;;;;11.90;9.63;;;10.10;99.90;;;;;;5073255;28;20942;-69
2022/10/04 00:51:22;;;;;;;18.43;12.23;;;10.10;99.90;;;;;;5073742;28;20914;-69
2022/10/04 00:53:58;;;;;;;14.17;9.93;;;10.10;99.90;;;;;;5073915;28;20837;-69
2022/10/04 00:56:39;;;;;;;15.30;11.17;;;10.10;99.90;;;;;;5073599;28;20403;-69
2022/10/04 00:59:13;;;;;;;9.97;8.90;;;10.00;99.90;;;;;;5072970;28;20428;-69
2022/10/04 01:01:39;;;;;;;10.43;9.00;;;10.00;99.90;;;;;;5073873;28;20407;-69
2022/10/04 01:04:23;;;;;;;12.83;10.10;;;10.00;99.90;;;;;;5073449;28;20413;-68
2022/10/04 01:06:50;;;;;;;9.30;8.40;;;10.00;99.90;;;;;;5072478;28;20159;-69
2022/10/04 01:09:17;;;;;;;10.10;9.00;;;10.00;99.90;;;;;;5072874;28;20534;-69
2022/10/04 01:11:53;;;;;;;12.00;9.60;;;10.00;99.90;;;;;;5073066;28;20494;-69
2022/10/04 01:14:40;;;;;;;10.93;9.77;;;10.00;99.90;;;;;;5072678;28;20806;-69
2022/10/04 01:17:07;;;;;;;9.87;8.97;;;10.00;99.90;;;;;;5073090;28;20380;-69
2022/10/04 01:19:33;;;;;;;11.47;9.93;;;9.90;99.90;;;;;;5073545;28;20407;-69
2022/10/04 01:22:07;;;;;;;12.40;10.00;;;9.90;99.90;;;;;;5073073;28;20420;-69
2022/10/04 01:24:36;;;;;;;11.27;9.10;;;9.90;99.90;;;;;;5072757;28;20639;-69
2022/10/04 01:27:02;;;;;;;11.57;10.47;;;9.90;99.90;;;;;;5073481;28;20434;-69
2022/10/04 01:29:30;;;;;;;10.00;9.00;;;9.90;99.90;;;;;;5071656;28;20546;-69
2022/10/04 01:31:59;;;;;;;12.93;10.97;;;9.80;99.90;;;;;;5072231;28;20491;-69
2022/10/04 01:34:29;;;;;;;10.77;9.27;;;9.70;99.90;;;;;;5071279;28;20414;-69
2022/10/04 01:36:59;;;;;;;12.90;9.70;;;9.80;99.90;;;;;;5072757;28;20386;-69
2022/10/04 01:39:27;;;;;;;11.53;10.13;;;9.70;99.90;;;;;;5072417;28;20505;-69
2022/10/04 01:42:08;;;;;;;10.90;9.70;;;9.70;99.90;;;;;;5072547;28;20878;-69
2022/10/04 01:44:50;;;;;;;11.70;9.97;;;9.70;99.90;;;;;;5072556;28;20414;-70
2022/10/04 01:47:27;;;;;;;11.83;9.60;;;9.60;99.90;;;;;;5072268;28;20460;-69
2022/10/04 01:49:56;;;;;;;11.43;10.23;;;9.60;99.90;;;;;;5072712;28;20420;-69
2022/10/04 01:52:31;;;;;;;10.53;9.10;;;9.50;99.90;;;;;;5072442;28;20458;-69
2022/10/04 01:55:19;;;;;;;12.40;11.10;;;9.40;99.90;;;;;;5073036;28;20831;-69
2022/10/04 01:58:06;;;;;;;11.93;10.70;;;9.40;99.90;;;;;;5072580;28;20434;-69
2022/10/04 02:00:32;;;;;;;13.30;11.50;;;9.50;99.90;;;;;;5072101;28;20441;-69
2022/10/04 02:03:03;;;;;;;12.13;10.07;;;9.50;99.90;;;;;;5072649;28;20407;-69
2022/10/04 02:05:34;;;;;;;11.43;10.10;;;9.50;99.90;;;;;;5072577;28;20399;-69
2022/10/04 02:08:11;;;;;;;10.77;9.67;;;9.60;99.90;;;;;;5072235;28;20423;-70
2022/10/04 02:10:39;;;;;;;12.20;10.17;;;9.60;99.90;;;;;;5072294;28;20407;-69
2022/10/04 02:13:09;;;;;;;11.67;10.43;;;9.60;99.90;;;;;;5072163;28;20937;-68
2022/10/04 02:15:38;;;;;;;13.10;10.20;;;9.60;99.90;;;;;;5071886;28;20411;-69
2022/10/04 02:18:13;;;;;;;10.97;9.83;;;9.60;99.90;;;;;;5072066;28;20448;-69
2022/10/04 02:20:39;;;;;;;17.40;11.40;;;9.60;99.90;;;;;;5072631;28;20489;-69
2022/10/04 02:23:06;;;;;;;12.93;11.33;;;9.60;99.90;;;;;;5072178;28;20552;-69
2022/10/04 02:25:34;;;;;;;15.17;11.77;;;9.60;99.90;;;;;;5074193;28;20496;-69
2022/10/04 02:28:00;;;;;;;11.90;9.30;;;9.60;99.90;;;;;;5076005;28;20433;-68
2022/10/04 02:30:26;;;;;;;12.00;10.80;;;9.60;99.90;;;;;;5075140;28;20453;-69
2022/10/04 02:32:56;;;;;;;12.60;11.30;;;9.60;99.90;;;;;;5076290;28;20451;-69
2022/10/04 02:35:45;;;;;;;10.70;9.47;;;9.50;99.90;;;;;;5074485;28;20423;-69
2022/10/04 02:38:22;;;;;;;12.50;11.20;;;9.50;99.90;;;;;;5075991;28;20438;-69
2022/10/04 02:41:18;;;;;;;13.67;11.60;;;9.40;99.90;;;;;;5076064;28;20693;-68
2022/10/04 02:43:52;;;;;;;10.70;9.10;;;9.30;99.90;;;;;;5076474;28;20422;-69
2022/10/04 02:46:27;;;;;;;13.60;10.33;;;9.40;99.90;;;;;;5075555;28;20389;-68
2022/10/04 02:49:04;;;;;;;11.23;10.10;;;9.40;99.90;;;;;;5075369;28;20431;-68
2022/10/04 02:51:40;;;;;;;12.10;10.63;;;9.50;99.90;;;;;;5075410;28;20462;-68
2022/10/04 02:54:29;;;;;;;11.00;9.87;;;9.50;99.90;;;;;;5075769;28;20399;-68
2022/10/04 02:56:56;;;;;;;12.93;9.70;;;9.60;99.90;;;;;;5076088;28;20449;-68
2022/10/04 02:59:22;;;;;;;15.33;10.27;;;9.50;99.90;;;;;;5075325;28;20436;-69
2022/10/04 03:01:51;;;;;;;11.80;10.40;;;9.40;99.90;;;;;;5075208;28;20454;-68
2022/10/04 03:04:19;;;;;;;11.10;10.03;;;9.40;99.90;;;;;;5075665;28;20461;-68
2022/10/04 03:06:46;;;;;;;12.10;10.37;;;9.40;99.90;;;;;;5075544;28;20819;-70
2022/10/04 03:09:13;;;;;;;11.87;10.67;;;9.50;99.90;;;;;;5075503;28;20434;-68
2022/10/04 03:11:40;;;;;;;8.90;7.90;;;9.40;99.90;;;;;;5075529;28;20585;-69
2022/10/04 03:14:12;;;;;;;11.70;10.50;;;9.40;99.90;;;;;;5075496;28;20890;-68
2022/10/04 03:16:42;;;;;;;11.53;10.43;;;9.30;99.90;;;;;;5075375;28;20399;-68
2022/10/04 03:19:09;;;;;;;10.90;9.80;;;9.30;99.90;;;;;;5075574;28;20433;-68
2022/10/04 03:21:37;;;;;;;13.23;10.57;;;9.30;99.90;;;;;;5075583;28;20416;-68
2022/10/04 03:24:05;;;;;;;11.30;10.00;;;9.30;99.90;;;;;;5075487;28;20422;-69
2022/10/04 03:26:39;;;;;;;17.10;11.80;;;9.30;99.90;;;;;;5075460;28;20415;-68
2022/10/04 03:29:09;;;;;;;12.93;11.53;;;9.10;99.90;;;;;;5075079;28;20419;-68
2022/10/04 03:31:41;;;;;;;10.27;9.17;;;9.10;99.90;;;;;;5074071;28;20422;-68
2022/10/04 03:34:14;;;;;;;10.80;9.50;;;9.20;99.90;;;;;;5073793;28;20919;-68
2022/10/04 03:36:40;;;;;;;12.77;10.80;;;9.20;99.90;;;;;;5073895;28;20387;-69
2022/10/04 03:39:10;;;;;;;10.83;9.53;;;9.20;99.90;;;;;;5074781;28;20442;-69
2022/10/04 03:41:40;;;;;;;10.23;9.10;;;9.20;99.90;;;;;;5074750;28;20490;-68
2022/10/04 03:44:13;;;;;;;15.53;10.80;;;9.20;99.90;;;;;;5074615;28;20434;-69
2022/10/04 03:46:39;;;;;;;12.43;10.40;;;9.30;99.90;;;;;;5073128;28;20678;-69
2022/10/04 03:49:06;;;;;;;10.53;9.30;;;9.30;99.90;;;;;;5074583;28;20570;-68
2022/10/04 03:51:33;;;;;;;10.33;9.30;;;9.30;99.90;;;;;;5074416;28;20411;-69
2022/10/04 03:54:01;;;;;;;9.63;8.00;;;9.30;99.90;;;;;;5074304;28;20415;-68
2022/10/04 03:56:33;;;;;;;10.73;9.67;;;9.30;99.90;;;;;;5074497;28;20406;-68
2022/10/04 03:59:02;;;;;;;11.90;9.70;;;9.20;99.90;;;;;;5074041;28;20424;-69
2022/10/04 04:01:41;;;;;;;13.93;10.00;;;9.10;99.90;;;;;;5073573;28;20804;-68
2022/10/04 04:04:22;;;;;;;11.83;10.37;;;9.20;99.90;;;;;;5074413;28;20695;-68
2022/10/04 04:07:06;;;;;;;12.77;9.27;;;9.10;99.90;;;;;;5074240;28;20388;-69
2022/10/04 04:09:43;;;;;;;11.30;10.10;;;9.00;99.90;;;;;;5074190;28;20924;-70
2022/10/04 04:12:56;;;;;;;8.77;7.73;;;9.10;99.90;;;;;;5074249;28;20466;-70
2022/10/04 04:15:22;;;;;;;10.60;9.50;;;9.20;99.90;;;;;;5008317;28;20881;-70
2022/10/04 04:17:53;;;;;;;10.80;8.60;;;9.20;99.90;;;;;;5052092;28;20479;-71
2022/10/04 04:20:33;;;;;;;12.17;8.57;;;9.10;99.90;;;;;;5065016;28;20453;-71
2022/10/04 04:23:14;;;;;;;11.67;8.70;;;9.00;99.90;;;;;;5068110;28;20447;-68
2022/10/04 04:25:46;;;;;;;10.30;9.30;;;9.00;99.90;;;;;;5074195;28;20406;-68
2022/10/04 04:28:20;;;;;;;13.60;10.63;;;9.00;99.90;;;;;;5073862;28;20433;-68
2022/10/04 04:30:49;;;;;;;14.00;9.80;;;9.10;99.90;;;;;;5071669;28;20913;-68
2022/10/04 04:33:58;;;;;;;11.80;10.27;;;9.20;99.90;;;;;;5073548;28;20875;-68
2022/10/04 04:36:24;;;;;;;12.40;10.60;;;9.20;99.90;;;;;;5058222;28;20505;-68
2022/10/04 04:41:34;;;;;;;13.07;9.10;;;9.20;99.90;;;;;;5074295;28;20476;-68
2022/10/04 04:44:01;;;;;;;11.03;9.80;;;9.20;99.90;;;;;;5073995;28;20490;-68
2022/10/04 04:46:27;;;;;;;12.00;9.30;;;9.30;99.90;;;;;;5073662;28;20418;-67
2022/10/04 04:49:06;;;;;;;12.90;9.70;;;9.30;99.90;;;;;;5073797;28;20426;-67
2022/10/04 04:51:32;;;;;;;12.13;8.93;;;9.30;99.90;;;;;;5074509;28;20395;-69
2022/10/04 04:54:01;;;;;;;10.83;9.73;;;9.30;99.90;;;;;;5073778;28;20885;-69
2022/10/04 04:56:28;;;;;;;10.23;8.60;;;9.30;99.90;;;;;;5073607;28;20487;-69
2022/10/04 04:58:58;;;;;;;10.83;9.73;;;9.30;99.90;;;;;;5073913;28;20431;-69
2022/10/04 05:01:34;;;;;;;8.40;7.57;;;9.20;99.90;;;;;;5072119;28;20512;-69
2022/10/04 05:04:12;;;;;;;12.83;8.50;;;9.20;99.90;;;;;;5071715;28;20395;-69
2022/10/04 05:06:44;;;;;;;9.17;8.27;;;9.10;99.90;;;;;;5073493;28;20405;-69
2022/10/04 05:09:29;;;;;;;12.83;10.97;;;9.10;99.90;;;;;;5072919;28;20509;-69
2022/10/04 05:12:14;;;;;;;10.37;9.27;;;9.10;99.90;;;;;;5072158;28;20588;-69
2022/10/04 05:14:46;;;;;;;10.70;9.60;;;9.00;99.90;;;;;;5073959;28;20400;-69
2022/10/04 05:17:19;;;;;;;13.07;10.47;;;8.90;99.90;;;;;;5072917;28;20383;-67
2022/10/04 05:19:45;;;;;;;15.00;10.50;;;8.90;99.90;;;;;;5073155;28;20412;-69
2022/10/04 05:22:13;;;;;;;11.53;9.40;;;8.90;99.90;;;;;;5073450;28;20430;-68
2022/10/04 05:24:41;;;;;;;10.67;9.67;;;9.00;99.90;;;;;;5073209;28;20409;-69
2022/10/04 05:27:21;;;;;;;10.00;8.93;;;9.00;99.90;;;;;;5071999;28;20494;-69
2022/10/04 05:30:01;;;;;;;11.77;9.77;;;9.10;99.90;;;;;;5072127;28;20423;-70
2022/10/04 05:32:59;;;;;;;10.47;9.37;;;9.10;99.90;;;;;;5072413;28;20437;-70
2022/10/04 05:35:26;;;;;;;10.53;9.50;;;9.10;99.90;;;;;;5073164;28;20535;-70
2022/10/04 05:38:17;;;;;;;11.50;8.43;;;9.00;99.90;;;;;;5072637;28;20500;-70
2022/10/04 05:40:55;;;;;;;12.47;8.70;;;9.10;99.90;;;;;;5065965;28;20508;-70
2022/10/04 05:43:35;;;;;;;8.53;7.53;;;9.20;99.90;;;;;;5073745;28;20384;-70
2022/10/04 05:46:24;;;;;;;10.47;9.37;;;9.30;99.90;;;;;;5072614;28;20406;-71
2022/10/04 05:48:56;;;;;;;9.23;8.07;;;9.30;99.90;;;;;;5072428;28;20932;-71
2022/10/04 05:51:29;;;;;;;11.03;9.13;;;9.30;99.90;;;;;;5073477;28;20459;-71
2022/10/04 05:54:00;;;;;;;11.27;8.50;;;9.30;99.90;;;;;;5072536;28;20419;-71
2022/10/04 05:56:29;;;;;;;9.73;8.73;;;9.40;99.90;;;;;;5073125;28;20404;-70
2022/10/04 05:59:15;;;;;;;9.67;8.77;;;9.50;99.90;;;;;;5070966;28;20967;-71
2022/10/04 06:02:06;;;;;;;11.60;8.57;;;9.60;99.90;;;;;;5072157;28;20444;-70
2022/10/04 06:04:46;;;;;;;9.47;8.50;;;9.70;99.90;;;;;;5072824;28;20390;-71
2022/10/04 06:07:20;;;;;;;9.10;8.20;;;9.70;99.90;;;;;;5072437;28;20955;-71
2022/10/04 06:09:59;;;;;;;8.27;7.47;;;9.80;99.90;;;;;;5072789;28;20419;-70
2022/10/04 06:12:42;;;;;;;8.40;7.50;;;9.90;99.90;;;;;;5072556;28;20963;-71
2022/10/04 06:15:14;;;;;;;9.33;7.13;;;10.00;99.90;;;;;;5072227;28;20910;-68
2022/10/04 06:17:45;;;;;;;11.63;9.60;;;10.00;99.90;;;;;;5071857;28;20477;-71
2022/10/04 06:20:31;;;;;;;10.47;9.47;;;10.10;99.90;;;;;;5071641;28;20407;-76
2022/10/04 06:23:00;;;;;;;9.43;8.43;;;10.10;99.90;;;;;;5072244;28;20407;-68
2022/10/04 06:25:39;;;;;;;10.00;9.10;;;10.10;99.90;;;;;;5073174;28;20988;-70
2022/10/04 06:28:11;;;;;;;12.03;9.00;;;10.10;99.90;;;;;;5073301;28;20436;-70
2022/10/04 06:30:55;;;;;;;12.20;8.70;;;10.20;99.90;;;;;;5071089;28;20439;-69
2022/10/04 06:33:46;;;;;;;17.23;10.10;;;10.30;99.90;;;;;;5072666;28;20445;-69
2022/10/04 06:36:39;;;;;;;9.33;8.40;;;10.40;99.90;;;;;;5072729;28;20388;-71
2022/10/04 06:39:31;;;;;;;8.90;8.00;;;10.40;99.90;;;;;;5071184;28;20995;-68
2022/10/04 06:42:08;;;;;;;8.63;7.40;;;10.50;99.90;;;;;;5072565;28;20392;-70
2022/10/04 06:45:10;;;;;;;11.70;10.50;;;10.60;99.90;;;;;;5072506;28;20384;-71
2022/10/04 06:47:59;;;;;;;10.30;8.30;;;10.70;99.90;;;;;;5071930;28;20471;-70
2022/10/04 06:50:40;;;;;;;10.10;8.27;;;10.90;99.90;;;;;;5043945;28;20445;-70
2022/10/04 06:53:14;;;;;;;11.17;10.07;;;10.90;99.90;;;;;;5072793;28;20452;-71
2022/10/04 06:55:51;;;;;;;10.40;9.00;;;11.00;99.90;;;;;;5073579;28;20724;-70
2022/10/04 06:58:53;;;;;;;13.27;9.47;;;11.00;99.90;;;;;;5070993;28;20729;-70
2022/10/04 07:01:33;;;;;;;9.47;8.57;;;11.10;99.90;;;;;;5072488;28;20408;-70
2022/10/04 07:04:20;;;;;;;9.30;8.33;;;11.30;99.90;;;;;;5073835;28;20404;-70
2022/10/04 07:07:23;;;;;;;9.50;8.47;;;11.40;99.90;;;;;;5073409;28;20395;-70
2022/10/04 07:10:00;;;;;;;9.57;8.50;;;11.20;99.90;;;;;;5072479;28;20481;-70
2022/10/04 07:12:27;;;;;;;10.50;8.10;;;10.90;99.90;;;;;;5074020;28;20929;-70
2022/10/04 07:14:58;;;;;;;13.27;8.90;;;10.80;99.90;;;;;;5075616;28;20402;-69
2022/10/04 07:17:31;;;;;;;12.07;8.97;;;11.10;99.90;;;;;;5075623;28;20726;-70
2022/10/04 07:19:58;;;;;;;15.70;9.37;;;11.40;99.90;;;;;;5075740;28;20483;-70
2022/10/04 07:22:30;;;;;;;11.87;9.17;;;11.60;99.90;;;;;;5075552;28;20898;-70
2022/10/04 07:25:21;;;;;;;11.70;8.37;;;11.70;99.90;;;;;;5075824;28;20402;-71
2022/10/04 07:31:05;;;;;;;9.40;8.50;;;12.00;99.90;;;;;;5076133;28;20951;-70
2022/10/04 07:33:40;;;;;;;11.47;9.20;;;12.10;99.90;;;;;;5065256;28;20475;-70
2022/10/04 07:36:12;;;;;;;9.40;8.33;;;12.20;99.90;;;;;;5075927;28;20387;-70
2022/10/04 07:38:45;;;;;;;7.97;7.17;;;12.30;99.90;;;;;;5074953;28;20889;-68
2022/10/04 07:41:20;;;;;;;9.70;8.57;;;12.00;99.90;;;;;;5075229;28;20388;-70
2022/10/04 07:43:53;;;;;;;7.40;6.67;;;11.60;99.90;;;;;;5074792;28;20416;-70
2022/10/04 07:46:40;;;;;;;8.90;8.00;;;11.40;99.90;;;;;;5074839;28;20476;-70
2022/10/04 07:49:13;;;;;;;9.90;8.30;;;11.80;99.90;;;;;;5074811;28;20420;-70
2022/10/04 07:51:45;;;;;;;9.10;8.10;;;12.10;99.90;;;;;;5075204;28;20405;-69
2022/10/04 07:54:20;;;;;;;10.37;9.33;;;12.40;99.90;;;;;;5075106;28;20763;-69
2022/10/04 07:56:50;;;;;;;11.20;9.10;;;12.20;99.90;;;;;;5074846;28;20380;-70
2022/10/04 07:59:31;;;;;;;9.73;8.73;;;12.30;99.90;;;;;;5074747;28;20423;-70
2022/10/04 08:02:23;;;;;;;9.50;8.10;;;12.10;99.90;;;;;;5074380;28;20404;-69
2022/10/04 08:04:55;;;;;;;13.63;9.50;;;12.20;99.90;;;;;;5074731;28;20388;-70
2022/10/04 08:08:05;;;;;;;9.90;8.27;;;12.50;99.90;;;;;;5074540;28;20413;-70
2022/10/04 08:10:30;;;;;;;11.00;8.73;;;12.70;99.90;;;;;;5058657;28;20767;-69
2022/10/04 08:13:14;;;;;;;11.83;8.30;;;13.00;99.90;;;;;;5072793;28;20455;-69
2022/10/04 08:15:42;;;;;;;9.07;8.17;;;13.10;99.90;;;;;;5074612;28;20223;-69
2022/10/04 08:18:26;;;;;;;8.40;7.60;;;13.30;99.90;;;;;;5074061;28;20432;-69
2022/10/04 08:21:05;;;;;;;9.63;8.60;;;13.30;99.90;;;;;;5071944;28;20422;-69
2022/10/04 08:23:52;;;;;;;8.83;7.60;;;13.20;99.90;;;;;;5069683;28;20471;-70
2022/10/04 08:26:48;;;;;;;8.30;7.43;;;12.90;99.90;;;;;;5073498;28;20447;-69
2022/10/04 08:29:41;;;;;;;10.50;8.33;;;12.90;99.90;;;;;;5053456;28;20451;-70
2022/10/04 08:32:22;;;;;;;8.27;7.43;;;13.30;99.90;;;;;;5053347;28;20448;-70
2022/10/04 08:34:56;;;;;;;11.03;8.90;;;13.50;99.90;;;;;;5052292;28;20418;-70
2022/10/04 08:37:52;;;;;;;13.50;8.70;;;13.50;99.90;;;;;;5053164;28;20390;-70
2022/10/04 08:40:52;;;;;;;9.40;8.43;;;13.60;99.90;;;;;;5053638;28;20405;-70
2022/10/04 08:43:30;;;;;;;10.10;8.00;;;13.40;99.90;;;;;;5053565;28;20486;-70
2022/10/04 08:46:17;;;;;;;10.17;8.60;;;12.70;99.90;;;;;;5053455;28;20394;-70
2022/10/04 08:49:20;;;;;;;11.70;8.53;;;12.90;99.90;;;;;;5055875;28;20486;-70
2022/10/04 08:51:58;;;;;;;9.60;8.53;;;13.40;99.90;;;;;;5062377;28;20410;-71
2022/10/04 08:54:59;;;;;;;10.03;9.00;;;14.00;99.90;;;;;;5051798;28;20837;-71
2022/10/04 08:57:51;;;;;;;8.80;7.90;;;13.80;99.90;;;;;;5061842;28;20774;-70
2022/10/04 09:00:58;;;;;;;11.80;8.23;;;13.90;99.90;;;;;;5073201;28;20391;-70
2022/10/04 09:04:00;;;;;;;9.20;7.40;;;13.50;99.90;;;;;;5011012;28;20419;-71
2022/10/04 09:06:56;;;;;;;8.77;7.90;;;13.20;99.90;;;;;;5011576;28;20399;-71
2022/10/04 09:09:52;;;;;;;9.23;7.47;;;12.90;99.90;;;;;;5067396;28;20496;-71
2022/10/04 09:12:18;;;;;;;10.73;9.60;;;13.10;99.90;;;;;;5073389;28;20778;-70
2022/10/04 09:14:48;;;;;;;9.37;7.77;;;13.50;99.90;;;;;;5073101;28;20408;-72
2022/10/04 09:17:19;;;;;;;8.47;7.67;;;13.50;99.90;;;;;;5072512;28;20404;-70
2022/10/04 09:20:07;;;;;;;11.80;8.30;;;13.70;99.90;;;;;;5073187;28;20393;-70
2022/10/04 09:22:50;;;;;;;8.00;6.67;;;13.90;99.90;;;;;;5073492;28;20468;-70
2022/10/04 09:25:20;;;;;;;9.13;6.50;;;13.90;99.90;;;;;;5073168;28;20809;-71
2022/10/04 09:28:19;;;;;;;7.37;6.53;;;14.00;99.90;;;;;;5073040;28;20457;-70
2022/10/04 09:30:59;;;;;;;11.30;6.90;;;14.10;99.90;;;;;;5072504;28;20478;-70
2022/10/04 09:33:24;;;;;;;9.03;6.17;;;14.10;99.90;;;;;;5070423;28;20454;-70
2022/10/04 09:35:59;;;;;;;7.00;6.30;;;14.30;99.90;;;;;;5072584;28;20961;-70
2022/10/04 09:38:52;;;;;;;9.47;6.93;;;14.50;99.90;;;;;;5072626;28;20179;-71
2022/10/04 09:41:33;;;;;;;8.63;6.07;;;14.50;99.90;;;;;;5072744;28;20480;-70
2022/10/04 09:44:27;;;;;;;8.50;6.00;;;14.60;99.90;;;;;;5072944;28;20377;-70
2022/10/04 09:47:21;;;;;;;7.77;6.80;;;15.10;99.90;;;;;;5072599;28;20378;-69
2022/10/04 09:50:36;;;;;;;12.80;6.00;;;14.90;99.90;;;;;;5072479;28;20800;-70
2022/10/04 09:53:22;;;;;;;9.23;5.90;;;14.80;99.90;;;;;;5059114;28;20639;-71
2022/10/04 09:55:57;;;;;;;6.27;4.60;;;15.30;99.90;;;;;;5072655;28;20392;-71
2022/10/04 09:58:29;;;;;;;4.60;3.87;;;15.70;99.90;;;;;;5072766;28;20482;-70
2022/10/04 10:01:21;;;;;;;5.83;4.27;;;16.10;99.90;;;;;;5071153;28;20503;-71
2022/10/04 10:04:05;;;;;;;5.40;3.80;;;16.60;99.90;;;;;;5071870;28;20396;-71
2022/10/04 10:06:58;;;;;;;4.83;3.00;;;16.50;99.90;;;;;;5072553;28;20921;-71
2022/10/04 10:15:32;;;;;;;5.40;3.70;;;17.00;99.90;;;;;;5071900;28;20394;-71
2022/10/04 10:18:09;;;;;;;4.63;3.40;;;17.00;99.90;;;;;;5071743;28;20906;-72
2022/10/04 10:20:52;;;;;;;4.63;2.90;;;17.10;99.90;;;;;;5073604;28;20445;-71
2022/10/04 10:23:39;;;;;;;4.47;3.17;;;17.30;99.90;;;;;;5073135;28;20389;-70
2022/10/04 10:26:23;;;;;;;5.07;3.70;;;17.10;99.90;;;;;;5072767;28;20873;-72
2022/10/04 10:29:31;;;;;;;5.63;3.70;;;16.80;99.90;;;;;;5071924;28;20450;-70
2022/10/04 10:32:14;;;;;;;4.80;3.43;;;17.00;99.90;;;;;;5070802;28;20450;-70
2022/10/04 10:35:13;;;;;;;3.80;2.73;;;16.90;99.90;;;;;;5071419;28;20543;-71
2022/10/04 10:38:13;;;;;;;6.30;3.30;;;17.10;99.90;;;;;;5072910;28;21060;-71
2022/10/04 10:41:07;;;;;;;3.87;3.40;;;17.20;99.90;;;;;;5062325;28;20412;-71
2022/10/04 10:44:01;;;;;;;4.60;3.23;;;17.50;99.90;;;;;;5072492;28;20396;-70
2022/10/04 10:46:51;;;;;;;3.10;2.77;;;17.50;99.90;;;;;;5073438;28;20431;-71
2022/10/04 10:49:40;;;;;;;3.73;3.33;;;17.60;99.90;;;;;;5075607;28;20416;-71
2022/10/04 10:52:14;;;;;;;5.10;3.13;;;17.60;99.90;;;;;;5074658;28;20657;-70
2022/10/04 10:55:06;;;;;;;6.50;3.50;;;17.70;99.90;;;;;;5075678;28;20443;-71
2022/10/04 10:57:56;;;;;;;4.00;3.20;;;17.80;99.90;;;;;;5076271;28;20511;-70
2022/10/04 11:01:00;;;;;;;6.67;3.80;;;17.70;99.90;;;;;;5075415;28;20380;-70
2022/10/04 11:04:02;;;;;;;6.63;3.60;;;18.40;99.90;;;;;;5075268;28;20418;-71
2022/10/04 11:06:38;;;;;;;3.83;3.00;;;19.10;99.90;;;;;;5075939;28;20399;-71
2022/10/04 11:09:29;;;;;;;4.47;3.50;;;19.50;99.90;;;;;;5076949;28;20419;-70
2022/10/04 11:12:33;;;;;;;4.87;3.10;;;20.30;99.90;;;;;;5074628;28;20454;-72
2022/10/04 11:15:05;;;;;;;3.93;3.00;;;21.70;99.90;;;;;;5076008;28;20864;-71
2022/10/04 11:17:48;;;;;;;3.80;2.73;;;22.80;99.40;;;;;;5075466;28;20436;-72
2022/10/04 11:20:50;;;;;;;4.53;3.20;;;23.40;97.90;;;;;;5075494;28;20384;-70
2022/10/04 11:23:54;;;;;;;5.77;3.40;;;24.90;97.10;;;;;;5075385;28;20392;-70
2022/10/04 11:26:41;;;;;;;5.40;2.77;;;25.20;94.60;;;;;;5075038;28;20385;-71
2022/10/04 11:29:21;;;;;;;4.00;3.20;;;25.00;94.00;;;;;;5075050;28;20407;-70
2022/10/04 11:31:59;;;;;;;4.73;3.20;;;24.50;94.20;;;;;;5074434;28;20388;-70
2022/10/04 11:35:02;;;;;;;4.40;3.00;;;24.60;93.70;;;;;;5074679;28;20487;-71
2022/10/04 11:37:43;;;;;;;3.80;2.93;;;24.70;93.60;;;;;;5074882;28;20396;-70
2022/10/04 11:40:34;;;;;;;4.20;2.60;;;24.50;93.60;;;;;;5075238;28;20476;-69
2022/10/04 11:43:18;;;;;;;2.37;2.17;;;25.10;93.40;;;;;;5074437;28;20425;-69
2022/10/04 11:46:03;;;;;;;4.20;2.47;;;25.70;92.70;;;;;;5055154;28;20401;-70
2022/10/04 11:48:40;;;;;;;2.90;2.27;;;25.00;92.40;;;;;;5054768;28;20443;-71
2022/10/04 11:51:47;;;;;;;3.27;2.43;;;26.20;90.90;;;;;;5054869;28;20769;-71
2022/10/04 11:54:30;;;;;;;5.20;2.73;;;25.90;92.10;;;;;;5054732;28;20532;-71
2022/10/04 11:57:03;;;;;;;4.30;2.47;;;24.40;92.70;;;;;;5054105;28;20386;-70
2022/10/04 11:59:54;;;;;;;4.27;2.60;;;24.00;93.40;;;;;;5054168;28;20946;-71
2022/10/04 12:02:57;;;;;;;3.53;2.20;;;24.30;94.20;;;;;;5059766;28;20494;-71
2022/10/04 12:06:02;;;;;;;3.80;2.47;;;25.10;92.00;;;;;;5074717;28;20396;-71
2022/10/04 12:08:53;;;;;;;7.07;3.40;;;25.20;92.70;;;;;;5074566;28;20474;-71
2022/10/04 12:15:03;;;;;;;2.43;2.20;;;25.80;91.80;;;;;;5074409;28;20468;-70
2022/10/04 12:17:32;;;;;;;4.13;2.40;;;27.00;88.60;;;;;;5073881;28;20400;-70
2022/10/04 12:20:39;;;;;;;3.93;2.57;;;27.50;88.10;;;;;;5074203;28;20401;-72
2022/10/04 12:23:30;;;;;;;3.37;2.63;;;28.20;86.20;;;;;;5048393;28;20420;-71
2022/10/04 12:26:17;;;;;;;4.40;2.43;;;27.50;87.30;;;;;;5052935;28;20516;-71
2022/10/04 12:29:13;;;;;;;2.50;1.87;;;27.40;88.20;;;;;;5053804;28;20421;-71
2022/10/04 12:31:49;;;;;;;4.13;2.97;;;28.20;86.00;;;;;;5053667;28;20765;-70
2022/10/04 12:34:35;;;;;;;2.50;1.83;;;28.20;82.20;;;;;;5070702;28;20423;-71
2022/10/04 12:37:29;;;;;;;6.67;3.00;;;27.00;84.90;;;;;;5073933;28;20446;-71
2022/10/04 12:40:06;;;;;;;6.10;2.43;;;26.50;87.30;;;;;;5073587;28;20728;-70
2022/10/04 12:43:05;;;;;;;3.57;2.40;;;26.00;90.00;;;;;;5074285;28;20470;-71
2022/10/04 12:45:55;;;;;;;6.23;2.40;;;26.90;87.50;;;;;;5073974;28;20431;-72
2022/10/04 12:48:48;;;;;;;3.00;2.50;;;28.50;82.10;;;;;;5073457;28;20606;-71
2022/10/04 12:51:33;;;;;;;4.70;2.67;;;28.20;80.80;;;;;;5073656;28;20424;-72
2022/10/04 12:54:27;;;;;;;4.00;2.10;;;29.10;80.00;;;;;;5071981;28;20451;-71
2022/10/04 12:57:22;;;;;;;4.23;1.93;;;28.40;79.40;;;;;;5074024;28;20377;-71
2022/10/04 12:59:54;;;;;;;3.63;2.40;;;29.00;77.40;;;;;;5072349;28;20420;-72
2022/10/04 13:02:35;;;;;;;2.90;2.07;;;28.50;78.70;;;;;;5073363;28;20438;-72
2022/10/04 13:05:37;;;;;;;2.40;1.80;;;29.40;76.70;;;;;;5074302;28;20871;-72
2022/10/04 13:08:30;;;;;;;5.23;2.40;;;29.10;75.80;;;;;;5071950;28;20446;-72
2022/10/04 13:11:19;;;;;;;2.50;1.87;;;29.90;75.20;;;;;;5073797;28;20443;-72
2022/10/04 13:14:06;;;;;;;2.90;2.30;;;29.70;73.60;;;;;;5074024;28;20539;-71
2022/10/04 13:16:55;;;;;;;2.63;1.90;;;29.90;73.70;;;;;;5072977;28;20399;-71
2022/10/04 13:19:24;;;;;;;1.83;1.67;;;30.40;73.20;;;;;;5072220;28;20532;-71
2022/10/04 13:22:14;;;;;;;3.23;2.10;;;30.20;70.90;;;;;;5073086;28;20412;-72
2022/10/04 13:24:56;;;;;;;4.73;2.30;;;32.20;67.80;;;;;;5073295;28;20752;-72
2022/10/04 13:27:42;;;;;;;5.23;1.97;;;33.20;64.80;;;;;;5073032;28;20435;-71
2022/10/04 13:30:22;;;;;;;3.27;1.90;;;32.90;62.60;;;;;;5061948;28;20450;-71
2022/10/04 13:33:25;;;;;;;3.30;1.60;;;33.30;61.50;;;;;;5071104;28;20456;-71
2022/10/04 13:36:01;;;;;;;2.27;1.73;;;34.40;58.10;;;;;;5072545;28;20873;-72
2022/10/04 13:38:45;;;;;;;3.30;1.73;;;35.30;56.30;;;;;;5072177;28;20423;-73
2022/10/04 13:41:20;;;;;;;4.30;1.83;;;34.30;55.40;;;;;;5072490;28;20889;-71
2022/10/04 13:44:11;;;;;;;2.47;1.73;;;34.30;56.40;;;;;;5072611;28;20731;-72
2022/10/04 13:47:20;;;;;;;2.40;1.90;;;34.30;56.00;;;;;;5072350;28;20407;-71
2022/10/04 13:50:25;;;;;;;2.13;1.70;;;33.90;54.80;;;;;;5071742;28;20435;-72
2022/10/04 13:56:36;;;;;;;2.93;1.50;;;34.40;56.70;;;;;;5073117;28;20878;-73
2022/10/04 13:59:23;;;;;;;3.63;2.37;;;34.20;55.60;;;;;;5067154;28;20556;-73
2022/10/04 14:02:17;;;;;;;2.73;1.90;;;35.00;53.90;;;;;;5073082;28;20381;-72
2022/10/04 14:05:14;;;;;;;4.63;2.53;;;35.20;51.60;;;;;;5072722;28;20416;-72
2022/10/04 14:08:18;;;;;;;6.50;2.20;;;33.80;55.40;;;;;;5073017;28;20420;-72
2022/10/04 14:11:12;;;;;;;2.50;2.00;;;32.10;57.60;;;;;;5073509;28;20431;-72